Taxila Weather



Taxila's Current Weather

Temprature 22.78o clear sky

clear sky

Rain: 0 %

Min Temprature22.78o
Max Temprature22.78o
Humidity42
Wind Speed5.28 m/h
Sun Rise05:02:45
Sun Set19:08:43
Current Time: 24-May-2022 07:34:29
Lat/Lon: 33.7476, 72.8075




Taxila's Geo Location



Taxila's Weather Forecast

Time Overall Temp Min Temp Max Temp Humidity Wind Speed Rain
24-May-2022 (Tue)
08:00:00 clear sky 22.780 22.780 24.790 42 5.28 m/h 0 %
11:00:00 clear sky 25.080 25.080 29.690 37 3.99 m/h 0 %
14:00:00 clear sky 29.380 29.380 32.680 27 3.7 m/h 0 %
17:00:00 clear sky 32.870 32.870 32.870 19 2.38 m/h 0 %
20:00:00 clear sky 28.190 28.190 28.190 25 0.97 m/h 0 %
23:00:00 clear sky 25.880 25.880 25.880 30 0.61 m/h 0 %
25-May-2022 (Wed)
02:00:00 clear sky 24.460 24.460 24.460 33 1.59 m/h 0 %
05:00:00 clear sky 23.790 23.790 23.790 34 2.3 m/h 0 %
08:00:00 clear sky 29.730 29.730 29.730 24 0.88 m/h 0 %
11:00:00 clear sky 34.320 34.320 34.320 18 3.14 m/h 0 %
14:00:00 clear sky 36.900 36.900 36.900 15 3.61 m/h 0 %
17:00:00 clear sky 36.930 36.930 36.930 14 2.13 m/h 0 %
20:00:00 clear sky 31.400 31.400 31.400 19 1.55 m/h 0 %
23:00:00 clear sky 29.340 29.340 29.340 22 0.69 m/h 0 %
26-May-2022 (Thu)
02:00:00 clear sky 27.720 27.720 27.720 25 1.7 m/h 0 %
05:00:00 clear sky 26.660 26.660 26.660 26 2.65 m/h 0 %
08:00:00 clear sky 32.660 32.660 32.660 19 1.55 m/h 0 %
11:00:00 clear sky 37.320 37.320 37.320 14 2.76 m/h 0 %
14:00:00 clear sky 40.270 40.270 40.270 11 3.12 m/h 0 %
17:00:00 clear sky 40.190 40.190 40.190 9 1.38 m/h 0 %
20:00:00 clear sky 34.090 34.090 34.090 13 1.44 m/h 0 %
23:00:00 clear sky 31.420 31.420 31.420 16 1.38 m/h 0 %
27-May-2022 (Fri)
02:00:00 clear sky 30.050 30.050 30.050 18 3.3 m/h 0 %
05:00:00 clear sky 28.640 28.640 28.640 20 2.51 m/h 0 %
08:00:00 clear sky 34.650 34.650 34.650 15 1.29 m/h 0 %
11:00:00 clear sky 40.050 40.050 40.050 11 2.41 m/h 0 %
14:00:00 clear sky 42.340 42.340 42.340 9 2.48 m/h 0 %
17:00:00 clear sky 42.760 42.760 42.760 8 3.03 m/h 0 %
20:00:00 clear sky 36.340 36.340 36.340 12 1.58 m/h 0 %
23:00:00 clear sky 33.760 33.760 33.760 14 3.35 m/h 0 %
28-May-2022 (Sat)
02:00:00 clear sky 31.510 31.510 31.510 16 2.64 m/h 0 %
05:00:00 scattered clouds 28.830 28.830 28.830 20 2.72 m/h 0 %
08:00:00 clear sky 33.640 33.640 33.640 17 3.58 m/h 0 %
11:00:00 clear sky 40.360 40.360 40.360 12 2.38 m/h 0 %
14:00:00 clear sky 43.150 43.150 43.150 9 3.21 m/h 0 %
17:00:00 few clouds 35.550 35.550 35.550 21 9.39 m/h 0 %
20:00:00 overcast clouds 34.150 34.150 34.150 23 5.06 m/h 0 %
23:00:00 overcast clouds 29.750 29.750 29.750 32 3.08 m/h 0 %
29-May-2022 (Sun)
02:00:00 overcast clouds 28.070 28.070 28.070 32 2.21 m/h 0 %
05:00:00 broken clouds 26.590 26.590 26.590 33 1.52 m/h 0 %

Famous Cities (61)